WMT7CT LROP-LBSF
Flight info
| Callsign | WMT7CT |
|---|---|
| Flight time | 0h 33m |
| Altitude | 24000 |
| Route | POLUN DCT TIMUR/N0440F290 N181 GOL |
| Aircraft | A321/M-SDE3FGHIRWY/LB1 |
Departure
| Time | 2026-05-07 17:50 |
|---|---|
| Airport | Bucharest Henri Coandă International Airport (LROP) |
Arrival
| Time | 2026-05-07 18:23 |
|---|---|
| Airport | Sofia Airport (LBSF) |
| Time | Latitude | Longitude | Altitude | Speed | Heading |
|---|---|---|---|---|---|
| 2026-05-07 17:31 | 44.57266 | 26.08098 | 319 ft | 0 kts | 352° |
| 2026-05-07 17:38 | 44.57258 | 26.08100 | 317 ft | 3 kts | 352° |
| 2026-05-07 17:39 | 44.57239 | 26.08100 | 318 ft | 3 kts | 38° |
| 2026-05-07 17:39 | 44.57224 | 26.08083 | 314 ft | 3 kts | 39° |
| 2026-05-07 17:39 | 44.57211 | 26.08064 | 315 ft | 3 kts | 65° |
| 2026-05-07 17:39 | 44.57205 | 26.08048 | 315 ft | 0 kts | 82° |
| 2026-05-07 17:41 | 44.57206 | 26.08057 | 313 ft | 1 kts | 83° |
| 2026-05-07 17:42 | 44.57206 | 26.08062 | 314 ft | 0 kts | 83° |
| 2026-05-07 17:42 | 44.57210 | 26.08104 | 317 ft | 12 kts | 83° |
| 2026-05-07 17:43 | 44.57219 | 26.08233 | 317 ft | 14 kts | 84° |
| 2026-05-07 17:43 | 44.57227 | 26.08364 | 317 ft | 12 kts | 84° |
| 2026-05-07 17:43 | 44.57240 | 26.08471 | 317 ft | 4 kts | 59° |
| 2026-05-07 17:43 | 44.57241 | 26.08471 | 317 ft | 0 kts | 56° |
| 2026-05-07 17:44 | 44.57251 | 26.08486 | 318 ft | 8 kts | 36° |
| 2026-05-07 17:45 | 44.57324 | 26.08486 | 320 ft | 6 kts | 351° |
| 2026-05-07 17:45 | 44.57338 | 26.08484 | 320 ft | 0 kts | 358° |
| 2026-05-07 17:45 | 44.57346 | 26.08484 | 321 ft | 3 kts | 359° |
| 2026-05-07 17:45 | 44.57377 | 26.08481 | 321 ft | 6 kts | 353° |
| 2026-05-07 17:46 | 44.57435 | 26.08472 | 322 ft | 10 kts | 354° |
| 2026-05-07 17:46 | 44.57466 | 26.08468 | 322 ft | 0 kts | 355° |
| 2026-05-07 17:47 | 44.57469 | 26.08467 | 323 ft | 3 kts | 355° |
| 2026-05-07 17:47 | 44.57531 | 26.08460 | 323 ft | 10 kts | 355° |
| 2026-05-07 17:47 | 44.57556 | 26.08456 | 326 ft | 0 kts | 352° |
| 2026-05-07 17:48 | 44.57568 | 26.08454 | 323 ft | 8 kts | 353° |
| 2026-05-07 17:48 | 44.57635 | 26.08456 | 328 ft | 8 kts | 14° |
| 2026-05-07 17:48 | 44.57669 | 26.08513 | 325 ft | 6 kts | 82° |
| 2026-05-07 17:48 | 44.57669 | 26.08515 | 327 ft | 0 kts | 82° |
| 2026-05-07 17:49 | 44.57669 | 26.08519 | 327 ft | 1 kts | 83° |
| 2026-05-07 17:49 | 44.57679 | 26.08634 | 326 ft | 40 kts | 83° |
| 2026-05-07 17:49 | 44.57736 | 26.09372 | 316 ft | 109 kts | 83° |
| 2026-05-07 17:50 | 44.57832 | 26.10692 | 321 ft | 161 kts | 84° |
| 2026-05-07 17:50 | 44.57952 | 26.12286 | 851 ft | 164 kts | 85° |
| 2026-05-07 17:50 | 44.58076 | 26.13936 | 1278 ft | 178 kts | 87° |
| 2026-05-07 17:50 | 44.58212 | 26.15759 | 1445 ft | 198 kts | 86° |
| 2026-05-07 17:51 | 44.58338 | 26.17773 | 1610 ft | 214 kts | 92° |
| 2026-05-07 17:51 | 44.57891 | 26.19744 | 1903 ft | 216 kts | 127° |
| 2026-05-07 17:51 | 44.56691 | 26.21047 | 2111 ft | 230 kts | 160° |
| 2026-05-07 17:51 | 44.55086 | 26.21201 | 2529 ft | 238 kts | 193° |
| 2026-05-07 17:52 | 44.53588 | 26.20107 | 2944 ft | 253 kts | 224° |
| 2026-05-07 17:52 | 44.52650 | 26.18008 | 3591 ft | 260 kts | 251° |
| 2026-05-07 17:52 | 44.52186 | 26.15560 | 4387 ft | 261 kts | 256° |
| 2026-05-07 17:52 | 44.51780 | 26.13080 | 5189 ft | 261 kts | 257° |
| 2026-05-07 17:53 | 44.51372 | 26.10596 | 5954 ft | 263 kts | 256° |
| 2026-05-07 17:53 | 44.50959 | 26.08081 | 6649 ft | 266 kts | 256° |
| 2026-05-07 17:53 | 44.50545 | 26.05544 | 7360 ft | 269 kts | 256° |
| 2026-05-07 17:53 | 44.50130 | 26.02978 | 8069 ft | 271 kts | 256° |
| 2026-05-07 17:54 | 44.49726 | 26.00387 | 8773 ft | 274 kts | 256° |
| 2026-05-07 17:54 | 44.49326 | 25.97766 | 9479 ft | 277 kts | 256° |
| 2026-05-07 17:54 | 44.48927 | 25.95113 | 10150 ft | 281 kts | 256° |
| 2026-05-07 17:54 | 44.48329 | 25.92416 | 10318 ft | 301 kts | 244° |
| 2026-05-07 17:55 | 44.47388 | 25.89684 | 10447 ft | 323 kts | 243° |
| 2026-05-07 17:55 | 44.46376 | 25.86771 | 10641 ft | 340 kts | 243° |
| 2026-05-07 17:55 | 44.45326 | 25.83762 | 11136 ft | 347 kts | 243° |
| 2026-05-07 17:55 | 44.44258 | 25.80708 | 11724 ft | 351 kts | 243° |
| 2026-05-07 17:56 | 44.43166 | 25.77584 | 12325 ft | 355 kts | 243° |
| 2026-05-07 17:56 | 44.42075 | 25.74461 | 12918 ft | 359 kts | 243° |
| 2026-05-07 17:56 | 44.40976 | 25.71304 | 13528 ft | 363 kts | 243° |
| 2026-05-07 17:56 | 44.39867 | 25.68115 | 14098 ft | 367 kts | 243° |
| 2026-05-07 17:57 | 44.38745 | 25.64897 | 14656 ft | 370 kts | 243° |
| 2026-05-07 17:57 | 44.37995 | 25.62752 | 15033 ft | 372 kts | 243° |
| 2026-05-07 17:57 | 44.36466 | 25.58389 | 15785 ft | 376 kts | 243° |
| 2026-05-07 17:57 | 44.35314 | 25.55097 | 16345 ft | 379 kts | 243° |
| 2026-05-07 17:58 | 44.34148 | 25.51773 | 16908 ft | 382 kts | 243° |
| 2026-05-07 17:58 | 44.32974 | 25.48432 | 17457 ft | 385 kts | 243° |
| 2026-05-07 17:58 | 44.31785 | 25.45062 | 18004 ft | 388 kts | 243° |
| 2026-05-07 17:58 | 44.30584 | 25.41668 | 18550 ft | 391 kts | 243° |
| 2026-05-07 17:59 | 44.29292 | 25.38327 | 19040 ft | 393 kts | 234° |
| 2026-05-07 17:59 | 44.27431 | 25.35539 | 19502 ft | 395 kts | 220° |
| 2026-05-07 17:59 | 44.25302 | 25.33118 | 20032 ft | 396 kts | 219° |
| 2026-05-07 17:59 | 44.23159 | 25.30702 | 20515 ft | 398 kts | 219° |
| 2026-05-07 18:00 | 44.20990 | 25.28267 | 20964 ft | 400 kts | 219° |
| 2026-05-07 18:00 | 44.18817 | 25.25833 | 21421 ft | 403 kts | 219° |
| 2026-05-07 18:00 | 44.16624 | 25.23376 | 21850 ft | 406 kts | 219° |
| 2026-05-07 18:00 | 44.14414 | 25.20904 | 22278 ft | 408 kts | 219° |
| 2026-05-07 18:01 | 44.12189 | 25.18418 | 22687 ft | 411 kts | 219° |
| 2026-05-07 18:01 | 44.09952 | 25.15919 | 22986 ft | 412 kts | 220° |
| 2026-05-07 18:01 | 44.07720 | 25.13424 | 23044 ft | 411 kts | 220° |
| 2026-05-07 18:01 | 44.05491 | 25.10935 | 23046 ft | 411 kts | 220° |
| 2026-05-07 18:02 | 44.01032 | 25.05963 | 23046 ft | 410 kts | 219° |
| 2026-05-07 18:02 | 43.98806 | 25.03485 | 23046 ft | 410 kts | 219° |
| 2026-05-07 18:02 | 43.96578 | 25.01009 | 23047 ft | 411 kts | 219° |
| 2026-05-07 18:03 | 43.94348 | 24.98534 | 23044 ft | 411 kts | 219° |
| 2026-05-07 18:03 | 43.92116 | 24.96059 | 23045 ft | 411 kts | 219° |
| 2026-05-07 18:03 | 43.89886 | 24.93584 | 23045 ft | 411 kts | 219° |
| 2026-05-07 18:03 | 43.87654 | 24.91111 | 23046 ft | 411 kts | 219° |
| 2026-05-07 18:04 | 43.85425 | 24.88644 | 23048 ft | 410 kts | 219° |
| 2026-05-07 18:04 | 43.83193 | 24.86179 | 23048 ft | 410 kts | 219° |
| 2026-05-07 18:04 | 43.80961 | 24.83716 | 23048 ft | 410 kts | 219° |
| 2026-05-07 18:04 | 43.78726 | 24.81251 | 23046 ft | 411 kts | 219° |
| 2026-05-07 18:05 | 43.76490 | 24.78790 | 23050 ft | 411 kts | 219° |
| 2026-05-07 18:05 | 43.74251 | 24.76328 | 23049 ft | 411 kts | 219° |
| 2026-05-07 18:05 | 43.72015 | 24.73865 | 23048 ft | 411 kts | 219° |
| 2026-05-07 18:05 | 43.69779 | 24.71402 | 23049 ft | 411 kts | 219° |
| 2026-05-07 18:06 | 43.67543 | 24.68945 | 23052 ft | 411 kts | 219° |
| 2026-05-07 18:06 | 43.65298 | 24.66483 | 23051 ft | 411 kts | 219° |
| 2026-05-07 18:06 | 43.63061 | 24.64032 | 23048 ft | 411 kts | 219° |
| 2026-05-07 18:06 | 43.60814 | 24.61572 | 23050 ft | 411 kts | 219° |
| 2026-05-07 18:07 | 43.58608 | 24.59159 | 22785 ft | 401 kts | 219° |
| 2026-05-07 18:07 | 43.56434 | 24.56785 | 22315 ft | 396 kts | 219° |
| 2026-05-07 18:07 | 43.54290 | 24.54448 | 21826 ft | 392 kts | 219° |
| 2026-05-07 18:07 | 43.52158 | 24.52126 | 21316 ft | 389 kts | 219° |
| 2026-05-07 18:08 | 43.50044 | 24.49826 | 20853 ft | 386 kts | 219° |
| 2026-05-07 18:08 | 43.47943 | 24.47541 | 20404 ft | 383 kts | 219° |
| 2026-05-07 18:08 | 43.45858 | 24.45275 | 19904 ft | 381 kts | 219° |
| 2026-05-07 18:08 | 43.43778 | 24.43018 | 19429 ft | 379 kts | 219° |
| 2026-05-07 18:09 | 43.42411 | 24.41536 | 19117 ft | 377 kts | 219° |
| 2026-05-07 18:09 | 43.40354 | 24.39303 | 18661 ft | 375 kts | 219° |
| 2026-05-07 18:09 | 43.38316 | 24.37089 | 18183 ft | 372 kts | 218° |
| 2026-05-07 18:09 | 43.36297 | 24.34895 | 17658 ft | 369 kts | 218° |
| 2026-05-07 18:10 | 43.34288 | 24.32715 | 17153 ft | 366 kts | 218° |
| 2026-05-07 18:10 | 43.32296 | 24.30558 | 16643 ft | 363 kts | 218° |
| 2026-05-07 18:10 | 43.30321 | 24.28425 | 16107 ft | 361 kts | 219° |
| 2026-05-07 18:10 | 43.28352 | 24.26302 | 15593 ft | 358 kts | 219° |
| 2026-05-07 18:11 | 43.26402 | 24.24201 | 15108 ft | 355 kts | 218° |
| 2026-05-07 18:11 | 43.24465 | 24.22118 | 14634 ft | 352 kts | 218° |
| 2026-05-07 18:11 | 43.22541 | 24.20050 | 14194 ft | 349 kts | 218° |
| 2026-05-07 18:11 | 43.20632 | 24.17999 | 14044 ft | 349 kts | 218° |
| 2026-05-07 18:12 | 43.18720 | 24.15942 | 14071 ft | 350 kts | 218° |
| 2026-05-07 18:12 | 43.16806 | 24.13886 | 14068 ft | 350 kts | 218° |
| 2026-05-07 18:12 | 43.14883 | 24.11828 | 14070 ft | 351 kts | 219° |
| 2026-05-07 18:12 | 43.12955 | 24.09773 | 13954 ft | 352 kts | 218° |
| 2026-05-07 18:13 | 43.10836 | 24.08138 | 13701 ft | 351 kts | 201° |
| 2026-05-07 18:13 | 43.08526 | 24.07064 | 13436 ft | 350 kts | 200° |
| 2026-05-07 18:13 | 43.06220 | 24.06014 | 13175 ft | 349 kts | 199° |
| 2026-05-07 18:13 | 43.03920 | 24.04971 | 12914 ft | 347 kts | 199° |
| 2026-05-07 18:14 | 43.01628 | 24.03936 | 12669 ft | 346 kts | 199° |
| 2026-05-07 18:14 | 42.99347 | 24.02910 | 12416 ft | 345 kts | 199° |
| 2026-05-07 18:14 | 42.97071 | 24.01890 | 12159 ft | 344 kts | 200° |
| 2026-05-07 18:14 | 42.94796 | 24.00871 | 11911 ft | 343 kts | 200° |
| 2026-05-07 18:15 | 42.92534 | 23.99859 | 11652 ft | 339 kts | 200° |
| 2026-05-07 18:15 | 42.90372 | 23.98695 | 11293 ft | 328 kts | 211° |
| 2026-05-07 18:15 | 42.88620 | 23.96853 | 10957 ft | 312 kts | 224° |
| 2026-05-07 18:15 | 42.87063 | 23.94882 | 10643 ft | 297 kts | 223° |
| 2026-05-07 18:16 | 42.85585 | 23.93003 | 10315 ft | 286 kts | 224° |
| 2026-05-07 18:16 | 42.84145 | 23.91165 | 9847 ft | 281 kts | 223° |
| 2026-05-07 18:16 | 42.82726 | 23.89354 | 9254 ft | 279 kts | 224° |
| 2026-05-07 18:16 | 42.81320 | 23.87561 | 8728 ft | 275 kts | 224° |
| 2026-05-07 18:17 | 42.79931 | 23.85794 | 8209 ft | 272 kts | 224° |
| 2026-05-07 18:17 | 42.78552 | 23.84041 | 7704 ft | 270 kts | 224° |
| 2026-05-07 18:17 | 42.77186 | 23.82307 | 7218 ft | 269 kts | 224° |
| 2026-05-07 18:17 | 42.75807 | 23.80552 | 6732 ft | 273 kts | 223° |
| 2026-05-07 18:18 | 42.74424 | 23.78795 | 6451 ft | 270 kts | 223° |
| 2026-05-07 18:18 | 42.73049 | 23.77054 | 6079 ft | 270 kts | 223° |
| 2026-05-07 18:18 | 42.71695 | 23.75344 | 5897 ft | 262 kts | 223° |
| 2026-05-07 18:18 | 42.70389 | 23.73690 | 5770 ft | 252 kts | 223° |
| 2026-05-07 18:19 | 42.69159 | 23.72065 | 5658 ft | 240 kts | 230° |
| 2026-05-07 18:19 | 42.68330 | 23.70158 | 5443 ft | 231 kts | 249° |
| 2026-05-07 18:19 | 42.68043 | 23.68047 | 5197 ft | 226 kts | 269° |
| 2026-05-07 18:19 | 42.68155 | 23.65930 | 4905 ft | 223 kts | 274° |
| 2026-05-07 18:20 | 42.68287 | 23.63854 | 4639 ft | 216 kts | 274° |
| 2026-05-07 18:20 | 42.68411 | 23.61872 | 4344 ft | 205 kts | 274° |
| 2026-05-07 18:20 | 42.68527 | 23.59998 | 4073 ft | 192 kts | 274° |
| 2026-05-07 18:20 | 42.68635 | 23.58261 | 3828 ft | 178 kts | 274° |
| 2026-05-07 18:21 | 42.68736 | 23.56626 | 3618 ft | 170 kts | 274° |
| 2026-05-07 18:21 | 42.68834 | 23.55033 | 3371 ft | 169 kts | 274° |
| 2026-05-07 18:21 | 42.68932 | 23.53443 | 3140 ft | 168 kts | 275° |
| 2026-05-07 18:21 | 42.69029 | 23.51859 | 2920 ft | 168 kts | 275° |
| 2026-05-07 18:22 | 42.69119 | 23.50285 | 2713 ft | 166 kts | 274° |
| 2026-05-07 18:22 | 42.69181 | 23.49229 | 2603 ft | 166 kts | 274° |
| 2026-05-07 18:22 | 42.69311 | 23.47173 | 2320 ft | 164 kts | 275° |
| 2026-05-07 18:22 | 42.69404 | 23.45637 | 2135 ft | 163 kts | 274° |
| 2026-05-07 18:23 | 42.69502 | 23.44101 | 1847 ft | 162 kts | 274° |
| 2026-05-07 18:23 | 42.69583 | 23.42725 | 1745 ft | 110 kts | 274° |
| 2026-05-07 18:23 | 42.69634 | 23.41981 | 1747 ft | 49 kts | 275° |
| 2026-05-07 18:23 | 42.69604 | 23.41617 | 1747 ft | 20 kts | 248° |
| 2026-05-07 18:24 | 42.69549 | 23.41463 | 1747 ft | 12 kts | 241° |
| 2026-05-07 18:24 | 42.69512 | 23.41364 | 1744 ft | 9 kts | 245° |
| 2026-05-07 18:24 | 42.69491 | 23.41285 | 1745 ft | 9 kts | 255° |
| 2026-05-07 18:24 | 42.69451 | 23.41213 | 1747 ft | 10 kts | 205° |
| 2026-05-07 18:25 | 42.69381 | 23.41192 | 1750 ft | 11 kts | 188° |
| 2026-05-07 18:25 | 42.69337 | 23.41187 | 1745 ft | 2 kts | 168° |
| 2026-05-07 18:25 | 42.69320 | 23.41204 | 1740 ft | 4 kts | 141° |
| 2026-05-07 18:25 | 42.69299 | 23.41269 | 1747 ft | 9 kts | 98° |
| 2026-05-07 18:26 | 42.69295 | 23.41371 | 1746 ft | 12 kts | 94° |
| 2026-05-07 18:26 | 42.69292 | 23.41419 | 1747 ft | 3 kts | 95° |
| 2026-05-07 18:26 | 42.69277 | 23.41490 | 1743 ft | 6 kts | 116° |
| 2026-05-07 18:26 | 42.69247 | 23.41519 | 1747 ft | 1 kts | 176° |
| 2026-05-07 18:27 | 42.69235 | 23.41511 | 1749 ft | 3 kts | 210° |
| 2026-05-07 18:27 | 42.69221 | 23.41479 | 1748 ft | 6 kts | 242° |
| 2026-05-07 18:27 | 42.69209 | 23.41431 | 1748 ft | 4 kts | 254° |
| 2026-05-07 18:27 | 42.69203 | 23.41407 | 1746 ft | 1 kts | 252° |